Gilbert, South Carolina
Current Conditions -  °F | °C
As of 1:17 AM on Monday 22 Dec 2014 (Local Time) from KCAE Reporting Station
Light Rain Light Rain  
Wind Chill: 43°   Ceiling: 700
Heat Index: 46°   Visibility: 3mi
Dew Point: 44°   Wind: 6mph
Humidity: 93%   Direction: 30°NNE
Pressure: 30.11"   Gusts: NA
Location:  33.92°N, 81.39°W
Report Text: KCAE 220617Z 03005KT 3SM -RA BR BKN007 BKN013 OVC027 08/07 A3011 RMK AO2 CIG 004V010 P0003 T00780067
Loading
Personal Weather Stations






























Interactive Weather Map New forecast layout! Learn more

10-Day Weather Forecast

Advertisements
Track Severe Weather on mobile